Time;durP1;ratioP1;P1;durP2;ratioP2;P2;SDS_P1;SDS_P2;PMS_P1;PMS_P2;Temp;Humidity;BMP_temperature;BMP_pressure;BME280_temperature;BME280_humidity;BME280_pressure;Samples;Min_cycle;Max_cycle;Signal;HPM_P1;HPM_P2
2021/04/16 00:00:08;;;;;;;32.53;14.00;;;;;;;2.55;97.56;98974.31;2218540;80;21139;-73
2021/04/16 00:03:12;;;;;;;30.12;13.32;;;;;;;2.55;98.07;98968.67;2190562;80;21138;-73
2021/04/16 00:06:14;;;;;;;33.08;14.78;;;;;;;2.55;98.04;98972.56;2218742;80;21301;-74
2021/04/16 00:09:16;;;;;;;33.53;15.35;;;;;;;2.52;97.90;98971.34;2218432;80;21143;-74
2021/04/16 00:12:18;;;;;;;30.25;13.55;;;;;;;2.53;98.05;98968.30;2218444;80;21578;-73
2021/04/16 00:15:20;;;;;;;31.73;14.70;;;;;;;2.49;98.21;98971.44;2218585;80;21761;-73
2021/04/16 00:18:22;;;;;;;32.20;14.85;;;;;;;2.51;98.09;98966.21;2218396;80;21554;-73
2021/04/16 00:21:24;;;;;;;31.25;13.60;;;;;;;2.51;98.07;98958.45;2218397;80;21594;-73
2021/04/16 00:24:26;;;;;;;32.83;15.95;;;;;;;2.50;98.24;98959.33;2218367;80;21139;-75
2021/04/16 00:27:28;;;;;;;31.48;13.45;;;;;;;2.50;98.35;98955.02;2218547;80;21130;-74
2021/04/16 00:30:30;;;;;;;31.05;14.00;;;;;;;2.51;98.28;98955.40;2218516;80;21168;-74
2021/04/16 00:33:33;;;;;;;32.23;14.50;;;;;;;2.51;98.35;98958.45;2218714;80;21312;-73
2021/04/16 00:36:35;;;;;;;33.15;15.55;;;;;;;2.52;98.37;98958.41;2218347;80;21295;-73
2021/04/16 00:39:36;;;;;;;33.25;14.90;;;;;;;2.50;98.64;98959.33;2218365;80;21264;-74
2021/04/16 00:42:38;;;;;;;32.03;15.00;;;;;;;2.51;98.64;98951.97;2218359;80;21276;-74
2021/04/16 00:45:40;;;;;;;31.15;14.45;;;;;;;2.49;98.72;98946.84;2218349;80;21631;-73
2021/04/16 00:48:43;;;;;;;30.35;13.35;;;;;;;2.48;98.82;98942.54;2189896;80;21139;-73
2021/04/16 00:51:45;;;;;;;29.00;12.33;;;;;;;2.47;99.01;98948.63;2218376;80;21269;-74
2021/04/16 00:54:47;;;;;;;29.23;12.37;;;;;;;2.44;99.14;98951.27;2218656;80;21291;-73
2021/04/16 00:57:49;;;;;;;29.63;13.22;;;;;;;2.42;99.49;98943.55;2189811;80;21272;-73
2021/04/16 01:00:51;;;;;;;28.75;12.33;;;;;;;2.41;99.77;98941.00;2218345;80;21292;-73
2021/04/16 01:03:53;;;;;;;31.25;13.40;;;;;;;2.41;99.82;98941.00;2218292;80;21288;-73
2021/04/16 01:06:55;;;;;;;30.82;13.60;;;;;;;2.40;100.00;98947.92;2218313;80;21280;-74
2021/04/16 01:09:57;;;;;;;28.67;13.05;;;;;;;2.40;100.00;98939.32;2218407;80;21153;-73
2021/04/16 01:12:59;;;;;;;32.98;13.88;;;;;;;2.37;100.00;98946.72;2218701;80;21280;-73
2021/04/16 01:16:03;;;;;;;28.27;12.03;;;;;;;2.38;100.00;98938.03;2218420;80;21292;-73
2021/04/16 01:19:05;;;;;;;30.50;12.75;;;;;;;2.37;100.00;98947.14;2218685;80;21276;-73
2021/04/16 01:22:07;;;;;;;32.05;14.03;;;;;;;2.36;100.00;98946.76;2218343;80;21721;-73
2021/04/16 01:25:09;;;;;;;30.55;14.07;;;;;;;2.35;100.00;98952.36;2218283;80;21308;-74
2021/04/16 01:28:11;;;;;;;33.75;14.93;;;;;;;2.35;100.00;98941.16;2218373;80;21308;-73
2021/04/16 01:31:13;;;;;;;32.03;12.82;;;;;;;2.36;100.00;98928.64;2218435;80;21146;-75
2021/04/16 01:34:15;;;;;;;29.10;12.75;;;;;;;2.37;100.00;98931.61;2218333;80;21268;-75
2021/04/16 01:37:16;;;;;;;32.78;13.80;;;;;;;2.35;100.00;98934.23;2218317;80;21721;-73
2021/04/16 01:40:18;;;;;;;32.95;13.88;;;;;;;2.36;100.00;98929.94;2218350;80;21718;-73
2021/04/16 01:43:21;;;;;;;30.45;14.00;;;;;;;2.36;100.00;98933.81;2218307;80;21300;-73
2021/04/16 01:46:23;;;;;;;34.15;15.70;;;;;;;2.35;100.00;98939.41;2219895;80;21288;-74
2021/04/16 01:49:24;;;;;;;30.20;14.20;;;;;;;2.36;100.00;98929.94;2222538;80;21292;-73
2021/04/16 01:52:26;;;;;;;31.85;14.45;;;;;;;2.36;100.00;98932.06;2222459;79;21761;-73
2021/04/16 01:55:28;;;;;;;33.40;13.28;;;;;;;2.36;100.00;98923.45;2222416;79;21304;-74
2021/04/16 01:58:30;;;;;;;30.50;13.30;;;;;;;2.33;100.00;98928.69;2196330;80;21283;-73
2021/04/16 02:01:32;;;;;;;30.97;14.18;;;;;;;2.29;100.00;98924.05;2222420;80;21594;-72
2021/04/16 02:04:34;;;;;;;30.82;13.32;;;;;;;2.29;100.00;98918.03;2222459;79;21288;-72
2021/04/16 02:07:37;;;;;;;29.65;12.10;;;;;;;2.29;100.00;98919.33;2222406;79;21146;-73
2021/04/16 02:10:39;;;;;;;28.83;11.90;;;;;;;2.29;100.00;98911.11;2222395;79;21272;-73
2021/04/16 02:13:41;;;;;;;29.30;13.03;;;;;;;2.30;100.00;98909.36;2222486;79;21739;-73
2021/04/16 02:16:43;;;;;;;30.30;12.93;;;;;;;2.28;100.00;98911.98;2195692;80;21281;-73
2021/04/16 02:19:45;;;;;;;29.32;13.32;;;;;;;2.28;100.00;98909.40;2222382;80;21285;-73
2021/04/16 02:22:47;;;;;;;30.08;11.68;;;;;;;2.28;100.00;98904.22;2222535;79;21272;-73
2021/04/16 02:25:49;;;;;;;28.67;12.23;;;;;;;2.26;100.00;98904.72;2222480;79;21300;-73
2021/04/16 02:28:51;;;;;;;27.42;11.90;;;;;;;2.27;100.00;98909.44;2222434;79;21546;-73
2021/04/16 02:31:53;;;;;;;27.82;11.38;;;;;;;2.28;100.00;98902.93;2222413;79;21300;-73
2021/04/16 02:34:55;;;;;;;27.87;11.60;;;;;;;2.27;100.00;98909.44;2222336;79;21280;-75
2021/04/16 02:37:57;;;;;;;30.72;12.55;;;;;;;2.26;100.00;98917.66;2222428;79;21278;-73
2021/04/16 02:40:59;;;;;;;29.30;11.93;;;;;;;2.24;100.00;98910.36;2222764;79;21276;-74
2021/04/16 02:44:01;;;;;;;27.98;12.15;;;;;;;2.26;100.00;98904.72;2222250;79;21360;-73
2021/04/16 02:47:03;;;;;;;29.90;12.73;;;;;;;2.24;100.00;98906.06;2193429;80;21272;-75
2021/04/16 02:50:06;;;;;;;28.85;12.53;;;;;;;2.25;100.00;98906.89;2218279;80;21280;-73
2021/04/16 02:53:07;;;;;;;26.42;10.70;;;;;;;2.24;100.00;98902.59;2218627;80;21146;-74
2021/04/16 02:56:09;;;;;;;28.05;11.68;;;;;;;2.24;100.00;98904.77;2218269;80;21277;-72
2021/04/16 02:59:11;;;;;;;28.77;12.25;;;;;;;2.24;100.00;98902.59;2189734;80;21296;-73
2021/04/16 03:02:13;;;;;;;27.55;11.00;;;;;;;2.21;100.00;98915.20;2218221;80;21709;-73
2021/04/16 03:05:15;;;;;;;30.62;11.97;;;;;;;2.22;100.00;98900.51;2218350;80;21606;-72
2021/04/16 03:08:17;;;;;;;28.12;11.78;;;;;;;2.21;100.00;98904.84;2189657;80;21273;-73
2021/04/16 03:11:19;;;;;;;28.45;11.15;;;;;;;2.22;100.00;98905.23;2218763;80;21165;-73
2021/04/16 03:14:21;;;;;;;29.32;11.55;;;;;;;2.21;100.00;98906.14;2218238;80;21309;-74
2021/04/16 03:17:23;;;;;;;30.80;12.55;;;;;;;2.21;100.00;98907.86;2218516;80;21264;-73
2021/04/16 03:20:25;;;;;;;30.90;12.63;;;;;;;2.19;100.00;98896.25;2218473;80;21178;-73
2021/04/16 03:23:27;;;;;;;28.02;11.57;;;;;;;2.19;100.00;98903.18;2218544;80;21602;-73
2021/04/16 03:26:29;;;;;;;30.97;12.68;;;;;;;2.18;100.00;98894.55;2218512;80;21146;-74
2021/04/16 03:29:31;;;;;;;31.65;13.22;;;;;;;2.20;100.00;98904.89;2190043;80;21345;-73
2021/04/16 03:32:33;;;;;;;31.33;13.38;;;;;;;2.23;100.00;98900.92;2218818;80;21281;-73
2021/04/16 03:35:35;;;;;;;32.08;12.93;;;;;;;2.23;100.00;98893.16;2218880;80;21265;-73
2021/04/16 03:38:37;;;;;;;29.12;12.45;;;;;;;2.25;100.00;98898.67;2218458;80;21158;-73
2021/04/16 03:41:39;;;;;;;30.62;13.30;;;;;;;2.25;100.00;98898.67;2218454;80;21146;-73
2021/04/16 03:44:42;;;;;;;30.27;12.10;;;;;;;2.27;100.00;98900.38;2218236;80;21602;-74
2021/04/16 03:47:45;;;;;;;30.77;12.15;;;;;;;2.24;100.00;98907.77;2186277;81;21723;-72
2021/04/16 03:50:47;;;;;;;26.57;10.75;;;;;;;2.22;100.00;98898.76;2193645;80;21296;-73
2021/04/16 03:53:50;;;;;;;28.90;11.45;;;;;;;2.19;100.00;98904.48;2193599;81;21297;-74
2021/04/16 03:56:52;;;;;;;28.92;12.23;;;;;;;2.18;100.00;98907.48;2193499;81;21304;-74
2021/04/16 03:59:55;;;;;;;31.75;12.45;;;;;;;2.20;100.00;98901.00;2193876;81;21288;-73
2021/04/16 04:02:58;;;;;;;31.10;12.07;;;;;;;2.20;100.00;98900.55;2178131;81;21133;-73
2021/04/16 04:06:00;;;;;;;27.25;11.05;;;;;;;2.20;100.00;98901.00;2193517;81;21281;-73
2021/04/16 04:09:02;;;;;;;30.72;11.57;;;;;;;2.19;100.00;98914.83;2193576;81;21288;-73
2021/04/16 04:12:04;;;;;;;29.07;10.90;;;;;;;2.18;100.00;98913.12;2193813;81;21273;-73
2021/04/16 04:15:06;;;;;;;31.17;11.22;;;;;;;2.19;100.00;98909.65;2193707;81;21304;-74
2021/04/16 04:18:08;;;;;;;32.08;11.90;;;;;;;2.18;100.00;98913.12;2193868;81;21685;-74
2021/04/16 04:21:10;;;;;;;29.27;11.68;;;;;;;2.15;100.00;98908.86;2193577;81;21280;-72
2021/04/16 04:24:12;;;;;;;26.70;9.85;;;;;;;2.15;100.00;98914.50;2193782;81;21276;-74
2021/04/16 04:27:14;;;;;;;28.32;11.00;;;;;;;2.13;100.00;98917.13;2193504;81;21292;-74
2021/04/16 04:30:16;;;;;;;30.08;12.13;;;;;;;2.14;100.00;98908.91;2193601;81;21284;-75
2021/04/16 04:33:18;;;;;;;29.42;11.93;;;;;;;2.12;100.00;98918.00;2193592;81;21293;-73
2021/04/16 04:36:20;;;;;;;30.43;11.53;;;;;;;2.12;100.00;98918.45;2193616;81;21307;-74
2021/04/16 04:39:22;;;;;;;32.93;12.37;;;;;;;2.13;100.00;98904.64;2193535;81;21299;-73
2021/04/16 04:42:24;;;;;;;31.20;12.03;;;;;;;2.12;100.00;98911.98;2193556;81;21300;-74
2021/04/16 04:45:26;;;;;;;32.42;12.68;;;;;;;2.13;100.00;98904.19;2193479;81;21308;-73
2021/04/16 04:48:28;;;;;;;31.82;11.45;;;;;;;2.14;100.00;98911.49;2216965;80;21280;-74
2021/04/16 04:51:30;;;;;;;32.20;11.35;;;;;;;2.14;100.00;98913.66;2221907;80;21696;-73
2021/04/16 04:54:32;;;;;;;31.07;11.33;;;;;;;2.14;100.00;98914.08;2221773;80;21260;-73
2021/04/16 04:57:34;;;;;;;30.10;12.28;;;;;;;2.15;100.00;98905.44;2222150;80;21150;-73
2021/04/16 05:00:36;;;;;;;27.60;10.10;;;;;;;2.15;100.00;98896.37;2221808;80;21272;-73
2021/04/16 05:03:38;;;;;;;29.25;11.53;;;;;;;2.16;100.00;98910.57;2221975;80;21717;-73
2021/04/16 05:06:40;;;;;;;26.77;10.38;;;;;;;2.17;100.00;98897.17;2221778;80;21284;-73
2021/04/16 05:09:42;;;;;;;30.15;11.57;;;;;;;2.18;100.00;98900.18;2222128;80;21288;-73
2021/04/16 05:12:46;;;;;;;26.95;10.30;;;;;;;2.17;100.00;98894.59;2221748;80;21269;-72
2021/04/16 05:15:48;;;;;;;30.52;12.47;;;;;;;2.18;100.00;98897.59;2196395;81;21295;-73
2021/04/16 05:18:52;;;;;;;26.82;10.08;;;;;;;2.19;100.00;98891.53;2196546;81;21275;-73
2021/04/16 05:21:56;;;;;;;27.30;9.33;;;;;;;2.20;100.00;98895.83;2196340;81;21149;-73
2021/04/16 05:24:58;;;;;;;29.87;11.45;;;;;;;2.21;100.00;98893.63;2241729;79;21186;-73
2021/04/16 05:28:00;;;;;;;30.72;11.97;;;;;;;2.21;100.00;98903.55;2221762;80;21273;-73
2021/04/16 05:31:01;;;;;;;28.47;10.85;;;;;;;2.22;100.00;98891.45;2222100;80;21185;-74
2021/04/16 05:34:03;;;;;;;26.87;10.55;;;;;;;2.23;100.00;98891.87;2196628;81;21268;-74
2021/04/16 05:37:06;;;;;;;26.50;10.03;;;;;;;2.25;100.00;98887.48;2196636;81;21717;-73
2021/04/16 05:40:08;;;;;;;28.75;11.08;;;;;;;2.28;100.00;98891.73;2196525;81;21735;-73
2021/04/16 05:43:10;;;;;;;26.68;10.25;;;;;;;2.30;100.00;98892.53;2196491;81;21557;-73
2021/04/16 05:46:12;;;;;;;29.52;11.30;;;;;;;2.33;100.00;98892.45;2196425;81;21320;-73
2021/04/16 05:49:14;;;;;;;26.65;11.25;;;;;;;2.36;100.00;98891.09;2196839;81;21154;-73
2021/04/16 05:52:17;;;;;;;28.07;10.80;;;;;;;2.39;100.00;98883.25;2196529;81;21148;-72
2021/04/16 05:55:19;;;;;;;27.27;11.25;;;;;;;2.42;100.00;98891.77;2196391;81;21268;-74
2021/04/16 05:58:21;;;;;;;26.10;9.70;;;;;;;2.40;100.00;98890.13;2196527;81;21277;-73
2021/04/16 06:01:23;;;;;;;26.70;10.82;;;;;;;2.40;100.00;98879.77;2241584;79;21284;-73
2021/04/16 06:04:25;;;;;;;28.70;10.80;;;;;;;2.46;100.00;98893.84;2221805;80;21292;-73
2021/04/16 06:07:27;;;;;;;28.12;11.55;;;;;;;2.51;100.00;98879.02;2221732;80;21720;-74
2021/04/16 06:10:29;;;;;;;27.85;11.90;;;;;;;2.53;100.00;98886.31;2196772;81;21329;-75
2021/04/16 06:13:31;;;;;;;26.80;11.35;;;;;;;2.57;100.00;98874.11;2196483;81;21332;-73
2021/04/16 06:16:33;;;;;;;25.48;10.23;;;;;;;2.59;100.00;98874.94;2196608;81;21268;-73
2021/04/16 06:19:35;;;;;;;28.67;11.08;;;;;;;2.57;100.00;98883.17;2196862;81;21149;-74
2021/04/16 06:22:37;;;;;;;26.68;10.30;;;;;;;2.58;100.00;98887.02;2196511;81;21276;-73
2021/04/16 06:25:40;;;;;;;27.22;10.75;;;;;;;2.59;100.00;98884.00;2196677;81;21173;-73
2021/04/16 06:28:42;;;;;;;26.77;9.90;;;;;;;2.58;100.00;98892.66;2196584;81;21291;-73
2021/04/16 06:31:44;;;;;;;27.95;11.83;;;;;;;2.57;100.00;98890.95;2241852;79;21102;-74
2021/04/16 06:34:46;;;;;;;27.27;11.45;;;;;;;2.60;100.00;98889.14;2221686;80;21284;-74
2021/04/16 06:37:48;;;;;;;27.48;10.80;;;;;;;2.64;100.00;98889.05;2222061;80;21268;-73
2021/04/16 06:40:50;;;;;;;28.77;13.20;;;;;;;2.63;100.00;98897.70;2221978;80;21290;-73
2021/04/16 06:43:52;;;;;;;27.98;11.70;;;;;;;2.66;100.00;98885.53;2221653;80;21281;-72
2021/04/16 06:46:55;;;;;;;26.75;10.03;;;;;;;2.68;100.00;98897.14;2221342;80;21296;-73
2021/04/16 06:49:57;;;;;;;28.38;11.95;;;;;;;2.69;100.00;98893.67;2219890;80;21142;-73
2021/04/16 06:53:00;;;;;;;27.93;12.10;;;;;;;2.74;100.00;98891.78;2220068;80;21264;-73
2021/04/16 06:56:01;;;;;;;27.30;11.45;;;;;;;2.78;100.00;98888.21;2219234;80;21273;-73
2021/04/16 06:59:03;;;;;;;25.17;9.98;;;;;;;2.80;100.00;98896.78;2219252;80;21142;-73
2021/04/16 07:02:09;;;;;;;24.43;10.60;;;;;;;2.80;100.00;98884.28;2219142;80;21732;-73
2021/04/16 07:05:11;;;;;;;26.27;11.15;;;;;;;2.82;100.00;98903.24;2219059;80;21336;-72
2021/04/16 07:08:13;;;;;;;27.70;11.15;;;;;;;2.84;100.00;98896.27;2218958;80;21292;-73
2021/04/16 07:11:15;;;;;;;28.45;11.10;;;;;;;2.84;100.00;98893.21;2219146;80;21724;-73
2021/04/16 07:14:17;;;;;;;28.67;12.07;;;;;;;2.88;100.00;98891.40;2219129;80;21709;-73
2021/04/16 07:17:19;;;;;;;24.07;9.58;;;;;;;2.87;100.00;98901.35;2219281;80;21708;-73
2021/04/16 07:20:22;;;;;;;25.23;10.53;;;;;;;2.89;100.00;98900.88;2219256;80;21720;-72
2021/04/16 07:23:24;;;;;;;;;;;;;;;2.90;100.00;98902.55;2195077;80;21159;-72
2021/04/16 07:26:26;;;;;;;25.70;9.95;;;;;;;2.84;100.00;98894.97;2219119;80;20131;-72
2021/04/16 07:29:28;;;;;;;24.72;10.65;;;;;;;2.89;100.00;98912.54;2192682;80;21285;-73
2021/04/16 07:32:31;;;;;;;28.35;11.65;;;;;;;2.90;100.00;98903.84;2219127;80;21767;-73
2021/04/16 07:35:34;;;;;;;27.07;11.70;;;;;;;2.94;100.00;98902.87;2218920;80;21289;-74
2021/04/16 07:38:36;;;;;;;30.88;12.50;;;;;;;2.98;100.00;98904.95;2219482;80;21284;-73
2021/04/16 07:41:38;;;;;;;24.90;9.83;;;;;;;3.02;100.00;98903.51;2219110;80;21264;-74
2021/04/16 07:44:40;;;;;;;26.45;10.93;;;;;;;3.05;100.00;98906.01;2192367;80;21155;-72
2021/04/16 07:47:42;;;;;;;27.62;11.75;;;;;;;3.05;100.00;98898.69;2218931;80;21714;-74
2021/04/16 07:50:44;;;;;;;25.52;10.90;;;;;;;3.05;100.00;98902.13;2218422;80;21174;-73
2021/04/16 07:53:46;;;;;;;27.37;11.50;;;;;;;3.10;100.00;98903.27;2218404;80;21147;-73
2021/04/16 07:56:48;;;;;;;26.77;11.65;;;;;;;3.12;100.00;98910.12;2218411;80;21154;-73
2021/04/16 07:59:51;;;;;;;25.65;10.88;;;;;;;3.12;100.00;98907.53;2218781;80;21292;-74
2021/04/16 08:02:54;;;;;;;24.57;10.80;;;;;;;3.18;100.00;98892.24;2218314;80;21154;-72
2021/04/16 08:05:57;;;;;;;25.72;10.48;;;;;;;3.23;100.00;98907.23;2218323;80;21619;-74
2021/04/16 08:08:59;;;;;;;26.65;11.45;;;;;;;3.28;100.00;98900.59;2218422;80;21154;-73
2021/04/16 08:12:01;;;;;;;27.32;11.88;;;;;;;3.35;100.00;98904.70;2218392;80;21139;-73
2021/04/16 08:15:03;;;;;;;24.02;10.43;;;;;;;3.42;100.00;98901.03;2218379;80;21130;-73
2021/04/16 08:18:05;;;;;;;25.25;11.25;;;;;;;3.52;100.00;98908.09;2218395;80;21197;-73
2021/04/16 08:21:07;;;;;;;24.07;10.25;;;;;;;3.60;100.00;98909.97;2218408;80;21272;-73
2021/04/16 08:24:11;;;;;;;;;;;;;;;3.67;100.00;98905.45;2220846;80;21300;-73
2021/04/16 08:27:13;;;;;;;25.25;10.10;;;;;;;3.73;100.00;98912.19;2218263;80;20144;-73
2021/04/16 08:30:15;;;;;;;24.95;9.45;;;;;;;3.77;100.00;98914.63;2218502;80;21166;-73
2021/04/16 08:33:17;;;;;;;25.50;10.30;;;;;;;3.83;100.00;98904.97;2189903;80;21310;-73
2021/04/16 08:36:19;;;;;;;23.20;9.10;;;;;;;3.91;100.00;98906.88;2218388;80;21598;-74
2021/04/16 08:39:21;;;;;;;23.87;9.03;;;;;;;4.02;100.00;98920.78;2218404;80;21284;-74
2021/04/16 08:42:23;;;;;;;22.37;8.68;;;;;;;4.06;100.00;98909.41;2218729;80;21268;-73
2021/04/16 08:45:26;;;;;;;21.75;8.85;;;;;;;4.03;99.35;98902.56;2189695;80;21293;-72
2021/04/16 08:48:28;;;;;;;21.77;8.35;;;;;;;4.02;99.90;98907.80;2218169;80;21571;-73
2021/04/16 08:51:30;;;;;;;23.45;9.00;;;;;;;4.06;100.00;98901.62;2218475;80;21578;-73
2021/04/16 08:54:33;;;;;;;21.33;7.78;;;;;;;4.11;100.00;98899.27;2218320;80;21713;-73
2021/04/16 08:57:40;;;;;;;21.55;8.33;;;;;;;4.20;99.93;98918.05;2218381;80;21151;-73
2021/04/16 09:00:40;;;;;;;21.07;7.28;;;;;;;4.21;99.07;98902.84;2217767;80;21285;-73
2021/04/16 09:03:42;;;;;;;20.30;7.15;;;;;;;4.23;98.63;98906.25;2218562;80;21145;-73
2021/04/16 09:06:44;;;;;;;21.68;7.92;;;;;;;4.26;98.58;98897.89;2218727;80;21268;-72
2021/04/16 09:09:47;;;;;;;20.60;7.00;;;;;;;4.37;98.58;98904.46;2218463;80;21150;-73
2021/04/16 09:12:49;;;;;;;21.27;7.70;;;;;;;4.33;96.52;98901.97;2218477;80;21287;-73
2021/04/16 09:15:51;;;;;;;21.07;6.95;;;;;;;4.40;97.96;98900.02;2218675;80;21319;-73
2021/04/16 09:18:54;;;;;;;19.55;6.37;;;;;;;4.48;97.83;98891.95;2218302;80;21130;-73
2021/04/16 09:21:56;;;;;;;19.17;7.15;;;;;;;4.54;97.02;98905.18;2218558;80;21142;-73
2021/04/16 09:24:58;;;;;;;17.92;6.45;;;;;;;4.56;95.87;98911.19;2218350;80;21595;-73
2021/04/16 09:28:00;;;;;;;18.30;6.10;;;;;;;4.53;96.21;98900.45;2218356;80;21265;-73
2021/04/16 09:31:02;;;;;;;19.15;6.58;;;;;;;4.46;95.77;98901.56;2218428;80;21167;-73
2021/04/16 09:34:12;;;;;;;18.80;6.22;;;;;;;4.37;95.92;98923.94;2218224;80;21154;-73
2021/04/16 09:37:14;;;;;;;18.15;5.83;;;;;;;4.35;95.01;98913.61;2218347;80;21724;-73
2021/04/16 09:40:17;;;;;;;18.07;6.00;;;;;;;4.45;95.39;98921.50;2218318;80;21752;-73
2021/04/16 09:43:21;;;;;;;18.67;6.17;;;;;;;4.56;95.26;98904.69;2189495;80;21265;-73
2021/04/16 09:46:23;;;;;;;16.75;5.47;;;;;;;4.56;95.33;98912.02;2218105;80;21585;-73
2021/04/16 09:49:25;;;;;;;16.00;4.80;;;;;;;4.48;94.49;98915.33;2221265;80;21689;-72
2021/04/16 09:52:27;;;;;;;19.37;5.70;;;;;;;4.43;94.15;98915.50;2222399;80;21293;-73
2021/04/16 09:55:29;;;;;;;17.05;5.40;;;;;;;4.44;95.14;98916.33;2222878;80;21126;-73
2021/04/16 09:58:32;;;;;;;15.98;5.58;;;;;;;4.46;94.20;98912.79;2222524;80;21307;-73
2021/04/16 10:01:34;;;;;;;20.65;5.85;;;;;;;4.52;94.77;98918.22;2222396;80;21129;-73
2021/04/16 10:04:36;;;;;;;16.70;5.62;;;;;;;4.49;94.24;98902.28;2222339;80;21153;-73
2021/04/16 10:07:38;;;;;;;17.95;5.45;;;;;;;4.49;95.67;98906.19;2222385;80;21760;-73
2021/04/16 10:10:42;;;;;;;18.67;5.30;;;;;;;4.54;94.97;98918.17;2222542;80;21165;-73
2021/04/16 10:13:45;;;;;;;15.78;5.47;;;;;;;4.54;95.12;98914.27;2222348;80;21292;-73
2021/04/16 10:16:48;;;;;;;15.93;5.30;;;;;;;4.53;94.09;98914.73;2222403;80;21331;-73
2021/04/16 10:19:50;;;;;;;18.23;6.45;;;;;;;4.55;94.51;98914.67;2222238;80;21309;-73
2021/04/16 10:22:53;;;;;;;19.37;6.05;;;;;;;4.53;94.31;98913.89;2222638;80;21570;-73
2021/04/16 12:38:07;;;;;;;21.20;7.90;;;;;;;3.81;94.92;98967.30;2218892;80;21740;-73
2021/04/16 12:41:06;;;;;;;20.82;8.05;;;;;;;3.77;95.82;98968.28;2218858;80;21263;-74
2021/04/16 12:44:08;;;;;;;19.90;7.62;;;;;;;3.80;96.18;98956.05;2219003;80;21289;-73
2021/04/16 12:47:11;;;;;;;20.82;8.23;;;;;;;3.79;95.91;98963.87;2219021;80;21621;-73
2021/04/16 12:50:13;;;;;;;20.88;7.65;;;;;;;3.80;95.61;98956.50;2218961;80;21308;-73
2021/04/16 12:53:14;;;;;;;21.62;8.40;;;;;;;3.79;95.57;98961.28;2218967;80;21297;-73
2021/04/16 12:56:16;;;;;;;22.17;8.90;;;;;;;3.80;95.99;98953.91;2219031;80;21308;-74
2021/04/16 12:59:18;;;;;;;24.23;9.08;;;;;;;3.80;96.11;98962.53;2219053;80;21277;-73
2021/04/16 13:02:21;;;;;;;22.35;8.30;;;;;;;3.80;96.19;98962.99;2219178;80;21268;-73
2021/04/16 13:05:23;;;;;;;22.95;9.33;;;;;;;3.76;95.91;98966.11;2218934;80;21693;-73
2021/04/16 13:08:25;;;;;;;22.65;9.33;;;;;;;3.75;96.62;98967.03;2219159;80;21104;-73
2021/04/16 13:11:28;;;;;;;23.73;8.70;;;;;;;3.72;96.12;98977.94;2219053;80;21138;-73
2021/04/16 13:14:30;;;;;;;;;;;;;;;3.69;96.26;98969.80;2221531;80;21135;-73
2021/04/16 13:17:32;;;;;;;24.80;9.10;;;;;;;3.70;96.55;98958.53;2219159;80;20140;-73
2021/04/16 13:20:34;;;;;;;21.35;8.68;;;;;;;3.71;96.98;98955.51;2219037;80;21272;-74
2021/04/16 13:23:36;;;;;;;24.82;9.38;;;;;;;3.68;96.85;98963.36;2219007;80;21569;-73
2021/04/16 13:26:38;;;;;;;23.42;9.60;;;;;;;3.64;96.77;98962.62;2219245;80;21315;-73
2021/04/16 13:29:40;;;;;;;24.45;10.15;;;;;;;3.61;96.91;98957.53;2192359;80;21285;-73
2021/04/16 13:32:42;;;;;;;24.70;10.08;;;;;;;3.60;98.07;98958.41;2219198;80;21300;-74
2021/04/16 13:35:44;;;;;;;22.10;9.25;;;;;;;3.56;97.67;98963.29;2218975;80;21161;-74
2021/04/16 13:38:47;;;;;;;24.65;10.53;;;;;;;3.59;98.12;98958.00;2218971;80;21285;-73
2021/04/16 13:41:48;;;;;;;26.85;11.40;;;;;;;3.60;98.51;98957.12;2218992;80;21268;-73
2021/04/16 13:44:50;;;;;;;27.98;11.25;;;;;;;3.58;98.42;98966.70;2218935;80;21493;-74
2021/04/16 13:47:52;;;;;;;24.47;10.50;;;;;;;3.56;98.23;98972.37;2218994;80;21123;-73
2021/04/16 13:50:55;;;;;;;25.60;9.73;;;;;;;3.55;98.21;98964.17;2190416;80;21725;-73
2021/04/16 13:53:57;;;;;;;23.70;10.00;;;;;;;3.55;98.12;98978.44;2218260;80;21268;-74
2021/04/16 13:56:59;;;;;;;25.57;10.32;;;;;;;3.57;98.82;98969.72;2218319;80;21740;-73
2021/04/16 14:00:02;;;;;;;24.77;10.08;;;;;;;3.60;98.34;98975.27;2218228;80;21768;-72
2021/04/16 14:03:04;;;;;;;24.80;10.55;;;;;;;3.65;98.89;98966.92;2218255;80;21131;-73
2021/04/16 14:06:06;;;;;;;24.18;10.32;;;;;;;3.67;98.65;98966.41;2218230;80;21178;-74
2021/04/16 14:09:08;;;;;;;22.67;9.63;;;;;;;3.68;98.29;98975.03;2218430;80;21264;-74
2021/04/16 14:12:10;;;;;;;22.25;8.10;;;;;;;3.63;98.13;98972.58;2218286;80;21145;-73
2021/04/16 14:15:12;;;;;;;23.27;9.50;;;;;;;3.61;98.04;98975.23;2189630;80;21276;-73
2021/04/16 14:18:14;;;;;;;22.20;8.73;;;;;;;3.67;98.04;98975.48;2218308;80;21277;-74
2021/04/16 14:21:16;;;;;;;22.93;8.25;;;;;;;3.67;98.04;98975.48;2218290;80;21264;-74
2021/04/16 14:24:19;;;;;;;24.05;8.60;;;;;;;3.69;96.88;98989.25;2218267;80;21309;-73
2021/04/16 14:27:21;;;;;;;21.12;7.92;;;;;;;3.66;97.43;98979.43;2218282;80;21186;-73
2021/04/16 14:30:22;;;;;;;20.65;8.00;;;;;;;3.66;97.22;98980.27;2218670;80;21154;-73
2021/04/16 14:33:24;;;;;;;19.12;7.15;;;;;;;3.62;96.69;98981.25;2218624;80;21162;-73
2021/04/16 14:36:27;;;;;;;21.55;7.30;;;;;;;3.58;96.83;98990.89;2218316;80;21296;-74
2021/04/16 14:39:29;;;;;;;20.20;7.35;;;;;;;3.56;96.79;98984.91;2190075;80;21717;-74
2021/04/16 14:42:30;;;;;;;21.95;7.15;;;;;;;3.55;96.86;98986.22;2218403;80;21297;-73
2021/04/16 14:45:33;;;;;;;19.50;6.33;;;;;;;3.53;96.31;98993.21;2218240;80;21744;-73
2021/04/16 14:48:35;;;;;;;21.87;7.22;;;;;;;3.53;96.00;98993.21;2218286;80;21301;-73
2021/04/16 14:51:37;;;;;;;20.27;6.90;;;;;;;3.52;96.32;99007.94;2222253;80;21751;-73
2021/04/16 14:54:39;;;;;;;18.55;6.50;;;;;;;3.52;97.11;98997.98;2222375;80;21280;-73
2021/04/16 14:57:41;;;;;;;19.65;6.70;;;;;;;3.53;96.47;98993.21;2195803;80;21170;-73
2021/04/16 15:00:44;;;;;;;19.85;7.15;;;;;;;3.53;96.69;99004.42;2222399;80;21268;-73
2021/04/16 15:03:46;;;;;;;20.35;6.40;;;;;;;3.52;96.69;99004.05;2222461;80;21317;-73
2021/04/16 15:06:48;;;;;;;17.92;6.30;;;;;;;3.44;96.67;99006.84;2222521;80;21280;-74
2021/04/16 15:09:51;;;;;;;18.12;5.87;;;;;;;3.45;97.53;99003.83;2222387;80;21436;-73
2021/04/16 15:12:53;;;;;;;17.90;5.90;;;;;;;3.49;96.79;99000.22;2222482;80;21733;-73
2021/04/16 15:15:57;;;;;;;20.90;6.42;;;;;;;3.45;96.92;98998.64;2222556;80;21717;-74
2021/04/16 15:19:00;;;;;;;19.00;5.72;;;;;;;3.45;97.00;98999.94;2222835;80;21744;-74
2021/04/16 15:22:02;;;;;;;20.20;6.00;;;;;;;3.45;97.03;99001.23;2222816;80;21316;-73
2021/04/16 15:25:04;;;;;;;18.90;6.58;;;;;;;3.42;97.48;99000.00;2222542;80;21309;-72
2021/04/16 15:28:06;;;;;;;19.45;6.30;;;;;;;3.39;97.42;98995.77;2222852;80;21264;-73
2021/04/16 15:31:08;;;;;;;21.23;6.78;;;;;;;3.35;97.06;99008.42;2222589;80;21284;-74
2021/04/16 15:47:14;;;;;;;18.65;6.30;;;;;;;3.21;98.33;98993.70;2222797;80;21118;-74
2021/04/16 15:50:16;;;;;;;21.30;7.47;;;;;;;3.19;98.46;98995.05;2222684;80;21299;-74
2021/04/16 15:53:19;;;;;;;23.25;8.95;;;;;;;3.19;98.95;98996.34;2222636;80;21095;-74
2021/04/16 15:56:22;;;;;;;22.30;9.03;;;;;;;3.20;99.00;98990.24;2222445;80;21138;-74
2021/04/16 15:59:24;;;;;;;24.18;9.28;;;;;;;3.21;98.93;98993.70;2222556;80;21277;-74
2021/04/16 16:02:27;;;;;;;23.02;9.40;;;;;;;3.18;99.20;98992.50;2222909;80;21289;-74
2021/04/16 16:05:30;;;;;;;23.67;10.25;;;;;;;3.15;99.36;98986.95;2196023;80;21182;-74
2021/04/16 16:08:32;;;;;;;24.82;9.53;;;;;;;3.16;99.46;98994.27;2222542;79;21130;-74
2021/04/16 16:11:35;;;;;;;22.58;9.13;;;;;;;3.15;99.41;98991.27;2195646;80;21269;-74
2021/04/16 16:14:39;;;;;;;24.15;9.43;;;;;;;3.12;99.72;98995.66;2222805;80;21138;-74
2021/04/16 16:17:43;;;;;;;24.23;9.00;;;;;;;3.12;100.00;99001.30;2222527;80;21154;-74
2021/04/16 16:20:45;;;;;;;23.30;9.18;;;;;;;3.12;100.00;98996.11;2222914;80;21284;-73
2021/04/16 16:23:47;;;;;;;23.22;10.05;;;;;;;3.10;100.00;98997.45;2222787;80;21268;-73
2021/04/16 16:26:49;;;;;;;22.02;8.05;;;;;;;3.11;100.00;98994.41;2222460;79;21757;-73
2021/04/16 16:29:52;;;;;;;;;;;;;;;3.09;99.63;98996.20;2225001;80;21297;-74